sensor_id;sensor_type;location;lat;lon;timestamp;P1;durP1;ratioP1;P2;durP2;ratioP2
22614;SDS011;11474;50.790;0.298;2023-03-14T00:01:53;27.98;;;4.93;;
22614;SDS011;11474;50.790;0.298;2023-03-14T00:04:19;28.80;;;5.77;;
22614;SDS011;11474;50.790;0.298;2023-03-14T00:06:45;32.38;;;5.25;;
22614;SDS011;11474;50.790;0.298;2023-03-14T00:09:12;30.17;;;4.88;;
22614;SDS011;11474;50.790;0.298;2023-03-14T00:11:38;25.20;;;4.47;;
22614;SDS011;11474;50.790;0.298;2023-03-14T00:14:04;31.67;;;5.50;;
22614;SDS011;11474;50.790;0.298;2023-03-14T00:16:30;29.50;;;5.00;;
22614;SDS011;11474;50.790;0.298;2023-03-14T00:18:58;31.20;;;5.40;;
22614;SDS011;11474;50.790;0.298;2023-03-14T00:21:24;27.05;;;4.70;;
22614;SDS011;11474;50.790;0.298;2023-03-14T00:23:51;31.75;;;4.90;;
22614;SDS011;11474;50.790;0.298;2023-03-14T00:26:18;29.17;;;4.85;;
22614;SDS011;11474;50.790;0.298;2023-03-14T00:28:44;26.08;;;4.70;;
22614;SDS011;11474;50.790;0.298;2023-03-14T00:31:12;29.05;;;4.55;;
22614;SDS011;11474;50.790;0.298;2023-03-14T00:33:38;29.02;;;5.13;;
22614;SDS011;11474;50.790;0.298;2023-03-14T00:36:06;29.50;;;5.05;;
22614;SDS011;11474;50.790;0.298;2023-03-14T00:38:34;32.92;;;5.10;;
22614;SDS011;11474;50.790;0.298;2023-03-14T00:41:04;24.90;;;4.43;;
22614;SDS011;11474;50.790;0.298;2023-03-14T00:43:30;26.40;;;4.57;;
22614;SDS011;11474;50.790;0.298;2023-03-14T00:45:56;31.63;;;4.93;;
22614;SDS011;11474;50.790;0.298;2023-03-14T00:48:22;32.20;;;4.97;;
22614;SDS011;11474;50.790;0.298;2023-03-14T00:50:48;26.40;;;3.97;;
22614;SDS011;11474;50.790;0.298;2023-03-14T00:53:14;22.00;;;3.80;;
22614;SDS011;11474;50.790;0.298;2023-03-14T00:55:41;22.50;;;3.70;;
22614;SDS011;11474;50.790;0.298;2023-03-14T00:58:07;26.45;;;3.20;;
22614;SDS011;11474;50.790;0.298;2023-03-14T01:00:34;23.33;;;4.03;;
22614;SDS011;11474;50.790;0.298;2023-03-14T01:03:00;16.98;;;3.17;;
22614;SDS011;11474;50.790;0.298;2023-03-14T01:05:26;17.05;;;2.88;;
22614;SDS011;11474;50.790;0.298;2023-03-14T01:07:52;14.88;;;2.75;;
22614;SDS011;11474;50.790;0.298;2023-03-14T01:10:19;18.60;;;2.88;;
22614;SDS011;11474;50.790;0.298;2023-03-14T01:12:45;17.73;;;3.10;;
22614;SDS011;11474;50.790;0.298;2023-03-14T01:15:11;18.63;;;3.13;;
22614;SDS011;11474;50.790;0.298;2023-03-14T01:17:37;19.02;;;3.20;;
22614;SDS011;11474;50.790;0.298;2023-03-14T01:20:05;19.63;;;3.03;;
22614;SDS011;11474;50.790;0.298;2023-03-14T01:22:34;21.50;;;3.13;;
22614;SDS011;11474;50.790;0.298;2023-03-14T01:25:00;19.70;;;3.33;;
22614;SDS011;11474;50.790;0.298;2023-03-14T01:27:26;19.48;;;3.50;;
22614;SDS011;11474;50.790;0.298;2023-03-14T01:29:52;22.92;;;3.47;;
22614;SDS011;11474;50.790;0.298;2023-03-14T01:32:18;19.10;;;3.13;;
22614;SDS011;11474;50.790;0.298;2023-03-14T01:34:44;20.02;;;3.35;;
22614;SDS011;11474;50.790;0.298;2023-03-14T01:37:10;22.60;;;4.03;;
22614;SDS011;11474;50.790;0.298;2023-03-14T01:39:37;20.52;;;3.60;;
22614;SDS011;11474;50.790;0.298;2023-03-14T01:42:03;20.90;;;3.42;;
22614;SDS011;11474;50.790;0.298;2023-03-14T01:47:14;20.40;;;3.42;;
22614;SDS011;11474;50.790;0.298;2023-03-14T01:49:40;15.45;;;3.00;;
22614;SDS011;11474;50.790;0.298;2023-03-14T01:52:07;16.02;;;2.75;;
22614;SDS011;11474;50.790;0.298;2023-03-14T01:57:04;14.73;;;2.90;;
22614;SDS011;11474;50.790;0.298;2023-03-14T01:59:30;13.82;;;2.75;;
22614;SDS011;11474;50.790;0.298;2023-03-14T02:01:57;15.05;;;3.10;;
22614;SDS011;11474;50.790;0.298;2023-03-14T02:04:32;17.88;;;3.17;;
22614;SDS011;11474;50.790;0.298;2023-03-14T02:07:03;16.10;;;3.53;;
22614;SDS011;11474;50.790;0.298;2023-03-14T02:09:31;14.13;;;3.13;;
22614;SDS011;11474;50.790;0.298;2023-03-14T02:11:57;17.67;;;3.40;;
22614;SDS011;11474;50.790;0.298;2023-03-14T02:14:31;18.48;;;3.55;;
22614;SDS011;11474;50.790;0.298;2023-03-14T02:16:58;11.38;;;2.70;;
22614;SDS011;11474;50.790;0.298;2023-03-14T02:20:08;11.63;;;2.30;;
22614;SDS011;11474;50.790;0.298;2023-03-14T02:22:15;16.88;;;2.92;;
22614;SDS011;11474;50.790;0.298;2023-03-14T02:27:11;21.98;;;3.78;;
22614;SDS011;11474;50.790;0.298;2023-03-14T02:29:39;20.42;;;3.83;;
22614;SDS011;11474;50.790;0.298;2023-03-14T02:32:06;23.23;;;3.80;;
22614;SDS011;11474;50.790;0.298;2023-03-14T02:34:33;16.70;;;3.30;;
22614;SDS011;11474;50.790;0.298;2023-03-14T02:37:00;13.30;;;2.65;;
22614;SDS011;11474;50.790;0.298;2023-03-14T02:39:35;4.72;;;1.40;;
22614;SDS011;11474;50.790;0.298;2023-03-14T02:42:02;2.90;;;1.30;;
22614;SDS011;11474;50.790;0.298;2023-03-14T02:44:28;2.20;;;1.20;;
22614;SDS011;11474;50.790;0.298;2023-03-14T02:46:54;1.95;;;1.10;;
22614;SDS011;11474;50.790;0.298;2023-03-14T02:49:21;2.13;;;1.07;;
22614;SDS011;11474;50.790;0.298;2023-03-14T02:51:47;2.20;;;1.33;;
22614;SDS011;11474;50.790;0.298;2023-03-14T02:54:14;2.55;;;1.40;;
22614;SDS011;11474;50.790;0.298;2023-03-14T02:56:41;2.25;;;1.10;;
22614;SDS011;11474;50.790;0.298;2023-03-14T02:59:07;3.50;;;1.40;;
22614;SDS011;11474;50.790;0.298;2023-03-14T03:01:33;3.05;;;1.10;;
22614;SDS011;11474;50.790;0.298;2023-03-14T03:04:00;2.17;;;1.30;;
22614;SDS011;11474;50.790;0.298;2023-03-14T03:06:26;3.92;;;1.33;;
22614;SDS011;11474;50.790;0.298;2023-03-14T03:08:52;5.40;;;1.48;;
22614;SDS011;11474;50.790;0.298;2023-03-14T03:11:18;4.50;;;1.40;;
22614;SDS011;11474;50.790;0.298;2023-03-14T03:13:44;2.00;;;1.50;;
22614;SDS011;11474;50.790;0.298;2023-03-14T03:16:10;1.80;;;1.42;;
22614;SDS011;11474;50.790;0.298;2023-03-14T03:18:38;2.33;;;1.42;;
22614;SDS011;11474;50.790;0.298;2023-03-14T03:21:04;2.72;;;1.20;;
22614;SDS011;11474;50.790;0.298;2023-03-14T03:23:32;3.67;;;1.30;;
22614;SDS011;11474;50.790;0.298;2023-03-14T03:25:58;4.18;;;1.60;;
22614;SDS011;11474;50.790;0.298;2023-03-14T03:28:24;3.05;;;1.30;;
22614;SDS011;11474;50.790;0.298;2023-03-14T03:30:51;3.60;;;1.60;;
22614;SDS011;11474;50.790;0.298;2023-03-14T03:33:17;1.48;;;1.15;;
22614;SDS011;11474;50.790;0.298;2023-03-14T03:35:47;3.03;;;1.20;;
22614;SDS011;11474;50.790;0.298;2023-03-14T03:38:13;2.97;;;1.20;;
22614;SDS011;11474;50.790;0.298;2023-03-14T03:40:39;2.08;;;1.05;;
22614;SDS011;11474;50.790;0.298;2023-03-14T03:43:05;2.45;;;1.20;;
22614;SDS011;11474;50.790;0.298;2023-03-14T03:45:31;1.80;;;1.00;;
22614;SDS011;11474;50.790;0.298;2023-03-14T03:47:57;1.85;;;1.25;;
22614;SDS011;11474;50.790;0.298;2023-03-14T03:50:23;3.87;;;1.43;;
22614;SDS011;11474;50.790;0.298;2023-03-14T03:52:49;4.13;;;1.45;;
22614;SDS011;11474;50.790;0.298;2023-03-14T03:55:15;2.42;;;1.48;;
22614;SDS011;11474;50.790;0.298;2023-03-14T03:57:41;3.13;;;1.20;;
22614;SDS011;11474;50.790;0.298;2023-03-14T04:00:08;3.45;;;1.08;;
22614;SDS011;11474;50.790;0.298;2023-03-14T04:02:36;3.88;;;1.10;;
22614;SDS011;11474;50.790;0.298;2023-03-14T04:05:03;3.67;;;1.33;;
22614;SDS011;11474;50.790;0.298;2023-03-14T04:07:31;2.60;;;0.90;;
22614;SDS011;11474;50.790;0.298;2023-03-14T04:09:57;2.85;;;1.35;;
22614;SDS011;11474;50.790;0.298;2023-03-14T04:12:23;1.98;;;1.00;;
22614;SDS011;11474;50.790;0.298;2023-03-14T04:14:49;1.55;;;1.40;;
22614;SDS011;11474;50.790;0.298;2023-03-14T04:17:15;2.70;;;1.13;;
22614;SDS011;11474;50.790;0.298;2023-03-14T04:19:41;3.63;;;1.30;;
22614;SDS011;11474;50.790;0.298;2023-03-14T04:22:07;2.58;;;1.00;;
22614;SDS011;11474;50.790;0.298;2023-03-14T04:24:34;5.18;;;1.20;;
22614;SDS011;11474;50.790;0.298;2023-03-14T04:27:00;4.30;;;1.27;;
22614;SDS011;11474;50.790;0.298;2023-03-14T04:29:26;3.45;;;1.20;;
22614;SDS011;11474;50.790;0.298;2023-03-14T04:31:52;3.70;;;1.30;;
22614;SDS011;11474;50.790;0.298;2023-03-14T04:34:18;4.38;;;1.25;;
22614;SDS011;11474;50.790;0.298;2023-03-14T04:36:44;4.85;;;2.25;;
22614;SDS011;11474;50.790;0.298;2023-03-14T04:39:10;2.80;;;1.20;;
22614;SDS011;11474;50.790;0.298;2023-03-14T04:41:36;5.55;;;1.20;;
22614;SDS011;11474;50.790;0.298;2023-03-14T04:44:02;3.53;;;1.35;;
22614;SDS011;11474;50.790;0.298;2023-03-14T04:46:29;2.63;;;1.30;;
22614;SDS011;11474;50.790;0.298;2023-03-14T04:48:55;3.10;;;1.15;;
22614;SDS011;11474;50.790;0.298;2023-03-14T04:51:21;3.33;;;1.52;;
22614;SDS011;11474;50.790;0.298;2023-03-14T04:53:48;2.60;;;1.10;;
22614;SDS011;11474;50.790;0.298;2023-03-14T04:56:14;6.07;;;1.38;;
22614;SDS011;11474;50.790;0.298;2023-03-14T04:58:40;5.95;;;1.60;;
22614;SDS011;11474;50.790;0.298;2023-03-14T05:01:06;4.57;;;1.43;;
22614;SDS011;11474;50.790;0.298;2023-03-14T05:03:32;8.52;;;1.90;;
22614;SDS011;11474;50.790;0.298;2023-03-14T05:06:01;7.35;;;1.65;;
22614;SDS011;11474;50.790;0.298;2023-03-14T05:08:27;6.88;;;1.70;;
22614;SDS011;11474;50.790;0.298;2023-03-14T05:10:53;5.03;;;1.40;;
22614;SDS011;11474;50.790;0.298;2023-03-14T05:13:19;5.73;;;1.63;;
22614;SDS011;11474;50.790;0.298;2023-03-14T05:15:45;11.32;;;2.13;;
22614;SDS011;11474;50.790;0.298;2023-03-14T05:18:11;10.75;;;1.83;;
22614;SDS011;11474;50.790;0.298;2023-03-14T05:20:37;6.73;;;1.60;;
22614;SDS011;11474;50.790;0.298;2023-03-14T05:23:04;7.13;;;1.57;;
22614;SDS011;11474;50.790;0.298;2023-03-14T05:25:30;5.15;;;1.30;;
22614;SDS011;11474;50.790;0.298;2023-03-14T05:27:56;5.85;;;1.80;;
22614;SDS011;11474;50.790;0.298;2023-03-14T05:30:22;7.10;;;1.40;;
22614;SDS011;11474;50.790;0.298;2023-03-14T05:32:48;11.38;;;2.65;;
22614;SDS011;11474;50.790;0.298;2023-03-14T05:35:14;6.72;;;1.45;;
22614;SDS011;11474;50.790;0.298;2023-03-14T05:37:40;5.00;;;1.60;;
22614;SDS011;11474;50.790;0.298;2023-03-14T05:40:06;3.33;;;1.60;;
22614;SDS011;11474;50.790;0.298;2023-03-14T05:42:33;8.90;;;1.77;;
22614;SDS011;11474;50.790;0.298;2023-03-14T05:44:59;14.23;;;2.05;;
22614;SDS011;11474;50.790;0.298;2023-03-14T05:47:25;10.63;;;1.80;;
22614;SDS011;11474;50.790;0.298;2023-03-14T05:49:51;6.82;;;1.80;;
22614;SDS011;11474;50.790;0.298;2023-03-14T05:52:17;6.70;;;1.60;;
22614;SDS011;11474;50.790;0.298;2023-03-14T05:54:44;7.97;;;1.70;;
22614;SDS011;11474;50.790;0.298;2023-03-14T05:57:10;6.88;;;1.48;;
22614;SDS011;11474;50.790;0.298;2023-03-14T05:59:36;7.67;;;2.00;;
22614;SDS011;11474;50.790;0.298;2023-03-14T06:02:02;10.10;;;2.22;;
22614;SDS011;11474;50.790;0.298;2023-03-14T06:04:28;7.28;;;1.83;;
22614;SDS011;11474;50.790;0.298;2023-03-14T06:06:54;13.25;;;2.40;;
22614;SDS011;11474;50.790;0.298;2023-03-14T06:09:21;6.90;;;1.80;;
22614;SDS011;11474;50.790;0.298;2023-03-14T06:11:48;11.60;;;2.35;;
22614;SDS011;11474;50.790;0.298;2023-03-14T06:14:14;10.68;;;2.33;;
22614;SDS011;11474;50.790;0.298;2023-03-14T06:16:41;7.65;;;1.77;;
22614;SDS011;11474;50.790;0.298;2023-03-14T06:19:07;8.40;;;1.73;;
22614;SDS011;11474;50.790;0.298;2023-03-14T06:21:33;10.20;;;2.30;;
22614;SDS011;11474;50.790;0.298;2023-03-14T06:23:59;8.95;;;1.83;;
22614;SDS011;11474;50.790;0.298;2023-03-14T06:26:25;11.57;;;1.87;;
22614;SDS011;11474;50.790;0.298;2023-03-14T06:28:51;11.80;;;2.67;;
22614;SDS011;11474;50.790;0.298;2023-03-14T06:31:18;9.32;;;2.08;;
22614;SDS011;11474;50.790;0.298;2023-03-14T06:33:44;12.68;;;2.00;;
22614;SDS011;11474;50.790;0.298;2023-03-14T06:36:10;8.30;;;1.70;;
22614;SDS011;11474;50.790;0.298;2023-03-14T06:38:36;11.77;;;2.78;;
22614;SDS011;11474;50.790;0.298;2023-03-14T06:41:06;7.80;;;1.80;;
22614;SDS011;11474;50.790;0.298;2023-03-14T06:43:32;13.63;;;2.25;;
22614;SDS011;11474;50.790;0.298;2023-03-14T06:45:58;14.40;;;2.70;;
22614;SDS011;11474;50.790;0.298;2023-03-14T06:48:24;6.05;;;1.77;;
22614;SDS011;11474;50.790;0.298;2023-03-14T06:50:50;6.63;;;2.42;;
22614;SDS011;11474;50.790;0.298;2023-03-14T06:53:16;10.20;;;2.50;;
22614;SDS011;11474;50.790;0.298;2023-03-14T06:55:42;10.32;;;2.10;;
22614;SDS011;11474;50.790;0.298;2023-03-14T06:58:10;7.78;;;2.15;;
22614;SDS011;11474;50.790;0.298;2023-03-14T07:00:36;8.18;;;2.08;;
22614;SDS011;11474;50.790;0.298;2023-03-14T07:03:02;9.32;;;2.03;;
22614;SDS011;11474;50.790;0.298;2023-03-14T07:05:28;14.18;;;2.13;;
22614;SDS011;11474;50.790;0.298;2023-03-14T07:07:54;8.95;;;2.03;;
22614;SDS011;11474;50.790;0.298;2023-03-14T07:10:20;9.82;;;2.25;;
22614;SDS011;11474;50.790;0.298;2023-03-14T07:12:46;16.55;;;2.65;;
22614;SDS011;11474;50.790;0.298;2023-03-14T07:15:13;11.20;;;2.17;;
22614;SDS011;11474;50.790;0.298;2023-03-14T07:17:39;8.50;;;2.35;;
22614;SDS011;11474;50.790;0.298;2023-03-14T07:20:05;14.40;;;2.47;;
22614;SDS011;11474;50.790;0.298;2023-03-14T07:22:32;14.53;;;2.40;;
22614;SDS011;11474;50.790;0.298;2023-03-14T07:24:58;11.10;;;2.10;;
22614;SDS011;11474;50.790;0.298;2023-03-14T07:27:24;9.55;;;2.20;;
22614;SDS011;11474;50.790;0.298;2023-03-14T07:29:50;10.05;;;2.08;;
22614;SDS011;11474;50.790;0.298;2023-03-14T07:32:16;10.90;;;2.30;;
22614;SDS011;11474;50.790;0.298;2023-03-14T07:34:42;9.18;;;2.05;;
22614;SDS011;11474;50.790;0.298;2023-03-14T07:37:08;11.55;;;2.13;;
22614;SDS011;11474;50.790;0.298;2023-03-14T07:39:34;13.23;;;2.55;;
22614;SDS011;11474;50.790;0.298;2023-03-14T07:42:00;15.73;;;2.60;;
22614;SDS011;11474;50.790;0.298;2023-03-14T07:44:27;9.57;;;2.50;;
22614;SDS011;11474;50.790;0.298;2023-03-14T07:46:53;17.88;;;2.08;;
22614;SDS011;11474;50.790;0.298;2023-03-14T07:49:19;10.90;;;1.90;;
22614;SDS011;11474;50.790;0.298;2023-03-14T07:51:48;11.57;;;2.25;;
22614;SDS011;11474;50.790;0.298;2023-03-14T07:54:15;14.70;;;2.58;;
22614;SDS011;11474;50.790;0.298;2023-03-14T07:56:42;11.15;;;2.08;;
22614;SDS011;11474;50.790;0.298;2023-03-14T07:59:08;12.85;;;2.50;;
22614;SDS011;11474;50.790;0.298;2023-03-14T08:01:34;11.38;;;1.90;;
22614;SDS011;11474;50.790;0.298;2023-03-14T08:04:00;8.85;;;2.40;;
22614;SDS011;11474;50.790;0.298;2023-03-14T08:06:26;5.53;;;1.55;;
22614;SDS011;11474;50.790;0.298;2023-03-14T08:08:52;9.02;;;2.03;;
22614;SDS011;11474;50.790;0.298;2023-03-14T08:11:18;9.77;;;2.28;;
22614;SDS011;11474;50.790;0.298;2023-03-14T08:13:44;11.05;;;2.22;;
22614;SDS011;11474;50.790;0.298;2023-03-14T08:16:15;10.45;;;1.95;;
22614;SDS011;11474;50.790;0.298;2023-03-14T08:18:42;12.05;;;2.42;;
22614;SDS011;11474;50.790;0.298;2023-03-14T08:21:08;6.97;;;1.63;;
22614;SDS011;11474;50.790;0.298;2023-03-14T08:23:34;9.23;;;2.10;;
22614;SDS011;11474;50.790;0.298;2023-03-14T08:26:00;11.05;;;2.28;;
22614;SDS011;11474;50.790;0.298;2023-03-14T08:28:27;8.68;;;1.90;;
22614;SDS011;11474;50.790;0.298;2023-03-14T08:30:58;10.85;;;2.00;;
22614;SDS011;11474;50.790;0.298;2023-03-14T08:33:25;8.63;;;2.33;;
22614;SDS011;11474;50.790;0.298;2023-03-14T08:35:55;6.60;;;1.73;;
22614;SDS011;11474;50.790;0.298;2023-03-14T08:38:21;9.38;;;1.98;;
22614;SDS011;11474;50.790;0.298;2023-03-14T08:40:47;6.32;;;1.67;;
22614;SDS011;11474;50.790;0.298;2023-03-14T08:43:15;6.45;;;1.92;;
22614;SDS011;11474;50.790;0.298;2023-03-14T08:45:41;9.48;;;2.20;;
22614;SDS011;11474;50.790;0.298;2023-03-14T08:48:07;10.00;;;2.00;;
22614;SDS011;11474;50.790;0.298;2023-03-14T08:50:33;7.70;;;1.80;;
22614;SDS011;11474;50.790;0.298;2023-03-14T08:52:59;8.32;;;2.13;;
22614;SDS011;11474;50.790;0.298;2023-03-14T08:55:26;6.38;;;1.40;;
22614;SDS011;11474;50.790;0.298;2023-03-14T08:57:52;9.52;;;1.88;;
22614;SDS011;11474;50.790;0.298;2023-03-14T09:00:19;9.32;;;2.15;;
22614;SDS011;11474;50.790;0.298;2023-03-14T09:02:45;9.25;;;1.92;;
22614;SDS011;11474;50.790;0.298;2023-03-14T09:05:12;9.80;;;2.20;;
22614;SDS011;11474;50.790;0.298;2023-03-14T09:07:38;7.93;;;1.80;;
22614;SDS011;11474;50.790;0.298;2023-03-14T09:10:05;5.22;;;1.73;;
22614;SDS011;11474;50.790;0.298;2023-03-14T09:12:32;11.13;;;1.98;;
22614;SDS011;11474;50.790;0.298;2023-03-14T09:14:58;10.88;;;1.80;;
22614;SDS011;11474;50.790;0.298;2023-03-14T09:17:24;10.63;;;2.00;;
22614;SDS011;11474;50.790;0.298;2023-03-14T09:19:50;7.97;;;2.00;;
22614;SDS011;11474;50.790;0.298;2023-03-14T09:22:16;6.63;;;1.48;;
22614;SDS011;11474;50.790;0.298;2023-03-14T09:24:42;7.20;;;1.87;;
22614;SDS011;11474;50.790;0.298;2023-03-14T09:27:09;8.05;;;1.90;;
22614;SDS011;11474;50.790;0.298;2023-03-14T09:29:35;4.07;;;1.73;;
22614;SDS011;11474;50.790;0.298;2023-03-14T09:32:01;10.88;;;2.03;;
22614;SDS011;11474;50.790;0.298;2023-03-14T09:34:28;7.95;;;1.80;;
22614;SDS011;11474;50.790;0.298;2023-03-14T09:36:54;9.43;;;1.85;;
22614;SDS011;11474;50.790;0.298;2023-03-14T09:39:20;9.38;;;1.90;;
22614;SDS011;11474;50.790;0.298;2023-03-14T09:41:47;6.03;;;1.50;;
22614;SDS011;11474;50.790;0.298;2023-03-14T09:44:37;10.20;;;2.20;;
22614;SDS011;11474;50.790;0.298;2023-03-14T09:47:03;10.75;;;1.90;;
22614;SDS011;11474;50.790;0.298;2023-03-14T09:49:34;8.93;;;2.15;;
22614;SDS011;11474;50.790;0.298;2023-03-14T09:52:02;5.55;;;1.67;;
22614;SDS011;11474;50.790;0.298;2023-03-14T09:57:02;8.20;;;1.70;;
22614;SDS011;11474;50.790;0.298;2023-03-14T09:59:29;6.88;;;1.80;;
22614;SDS011;11474;50.790;0.298;2023-03-14T10:02:02;6.35;;;1.70;;
22614;SDS011;11474;50.790;0.298;2023-03-14T10:04:37;6.53;;;1.55;;
22614;SDS011;11474;50.790;0.298;2023-03-14T10:07:07;9.68;;;1.77;;
22614;SDS011;11474;50.790;0.298;2023-03-14T10:09:35;7.07;;;1.67;;
22614;SDS011;11474;50.790;0.298;2023-03-14T10:12:02;8.30;;;1.65;;
22614;SDS011;11474;50.790;0.298;2023-03-14T10:14:32;7.67;;;2.33;;
22614;SDS011;11474;50.790;0.298;2023-03-14T10:17:09;6.07;;;1.80;;
22614;SDS011;11474;50.790;0.298;2023-03-14T10:19:36;7.32;;;1.63;;
22614;SDS011;11474;50.790;0.298;2023-03-14T10:22:03;10.05;;;1.80;;
22614;SDS011;11474;50.790;0.298;2023-03-14T10:24:39;6.63;;;1.90;;
22614;SDS011;11474;50.790;0.298;2023-03-14T10:27:18;7.38;;;1.55;;
22614;SDS011;11474;50.790;0.298;2023-03-14T10:29:51;4.13;;;1.42;;
22614;SDS011;11474;50.790;0.298;2023-03-14T10:32:20;3.88;;;1.20;;
22614;SDS011;11474;50.790;0.298;2023-03-14T10:35:03;1.67;;;1.00;;
22614;SDS011;11474;50.790;0.298;2023-03-14T10:37:30;3.40;;;1.10;;
22614;SDS011;11474;50.790;0.298;2023-03-14T10:39:58;2.00;;;1.10;;
22614;SDS011;11474;50.790;0.298;2023-03-14T10:42:34;1.33;;;1.08;;
22614;SDS011;11474;50.790;0.298;2023-03-14T10:45:05;2.35;;;1.10;;
22614;SDS011;11474;50.790;0.298;2023-03-14T10:47:33;1.75;;;1.02;;
22614;SDS011;11474;50.790;0.298;2023-03-14T10:50:44;2.55;;;1.20;;
22614;SDS011;11474;50.790;0.298;2023-03-14T10:52:48;2.90;;;1.25;;
22614;SDS011;11474;50.790;0.298;2023-03-14T10:55:16;3.90;;;1.20;;
22614;SDS011;11474;50.790;0.298;2023-03-14T10:57:42;3.35;;;1.30;;
22614;SDS011;11474;50.790;0.298;2023-03-14T11:00:29;6.07;;;1.40;;
22614;SDS011;11474;50.790;0.298;2023-03-14T11:03:02;4.60;;;1.40;;
22614;SDS011;11474;50.790;0.298;2023-03-14T11:05:31;1.77;;;1.20;;
22614;SDS011;11474;50.790;0.298;2023-03-14T11:08:07;2.70;;;1.30;;
22614;SDS011;11474;50.790;0.298;2023-03-14T11:10:35;3.08;;;1.30;;
22614;SDS011;11474;50.790;0.298;2023-03-14T11:21:01;2.75;;;1.25;;
22614;SDS011;11474;50.790;0.298;2023-03-14T11:28:49;2.88;;;1.10;;
22614;SDS011;11474;50.790;0.298;2023-03-14T11:31:28;3.90;;;1.40;;
22614;SDS011;11474;50.790;0.298;2023-03-14T11:33:56;2.83;;;1.15;;
22614;SDS011;11474;50.790;0.298;2023-03-14T11:39:41;4.97;;;1.58;;
22614;SDS011;11474;50.790;0.298;2023-03-14T11:42:10;6.18;;;1.73;;
22614;SDS011;11474;50.790;0.298;2023-03-14T11:44:37;5.28;;;1.90;;
22614;SDS011;11474;50.790;0.298;2023-03-14T11:47:26;4.57;;;1.70;;
22614;SDS011;11474;50.790;0.298;2023-03-14T11:50:02;4.55;;;1.65;;
22614;SDS011;11474;50.790;0.298;2023-03-14T11:55:27;4.70;;;1.42;;
22614;SDS011;11474;50.790;0.298;2023-03-14T11:57:56;4.43;;;1.60;;
22614;SDS011;11474;50.790;0.298;2023-03-14T12:00:24;3.35;;;1.40;;
22614;SDS011;11474;50.790;0.298;2023-03-14T12:13:10;4.30;;;1.80;;
22614;SDS011;11474;50.790;0.298;2023-03-14T12:15:40;3.92;;;1.30;;
22614;SDS011;11474;50.790;0.298;2023-03-14T12:18:25;5.80;;;1.88;;
22614;SDS011;11474;50.790;0.298;2023-03-14T12:21:10;5.75;;;1.65;;
22614;SDS011;11474;50.790;0.298;2023-03-14T12:23:44;4.95;;;1.60;;
22614;SDS011;11474;50.790;0.298;2023-03-14T12:28:36;5.22;;;1.27;;
22614;SDS011;11474;50.790;0.298;2023-03-14T12:33:48;5.57;;;1.88;;
22614;SDS011;11474;50.790;0.298;2023-03-14T12:36:19;4.85;;;1.50;;
22614;SDS011;11474;50.790;0.298;2023-03-14T12:38:57;5.25;;;1.60;;
22614;SDS011;11474;50.790;0.298;2023-03-14T12:43:51;7.75;;;2.15;;
22614;SDS011;11474;50.790;0.298;2023-03-14T12:48:44;5.97;;;1.80;;
22614;SDS011;11474;50.790;0.298;2023-03-14T12:53:46;5.00;;;1.63;;
22614;SDS011;11474;50.790;0.298;2023-03-14T12:58:54;6.75;;;2.13;;
22614;SDS011;11474;50.790;0.298;2023-03-14T13:01:22;4.82;;;1.90;;
22614;SDS011;11474;50.790;0.298;2023-03-14T13:03:57;7.50;;;1.73;;
22614;SDS011;11474;50.790;0.298;2023-03-14T13:12:09;7.10;;;1.90;;
22614;SDS011;11474;50.790;0.298;2023-03-14T13:14:36;4.60;;;1.67;;
22614;SDS011;11474;50.790;0.298;2023-03-14T13:17:09;5.80;;;1.70;;
22614;SDS011;11474;50.790;0.298;2023-03-14T13:19:36;6.20;;;1.70;;
22614;SDS011;11474;50.790;0.298;2023-03-14T13:22:03;11.52;;;1.90;;
22614;SDS011;11474;50.790;0.298;2023-03-14T13:24:32;8.40;;;1.80;;
22614;SDS011;11474;50.790;0.298;2023-03-14T13:26:58;7.22;;;2.47;;
22614;SDS011;11474;50.790;0.298;2023-03-14T13:29:29;6.32;;;1.65;;
22614;SDS011;11474;50.790;0.298;2023-03-14T13:32:00;8.75;;;1.70;;
22614;SDS011;11474;50.790;0.298;2023-03-14T13:34:30;3.35;;;1.70;;
22614;SDS011;11474;50.790;0.298;2023-03-14T13:36:56;6.40;;;1.75;;
22614;SDS011;11474;50.790;0.298;2023-03-14T13:39:23;6.45;;;1.58;;
22614;SDS011;11474;50.790;0.298;2023-03-14T13:41:50;5.22;;;1.70;;
22614;SDS011;11474;50.790;0.298;2023-03-14T13:44:18;5.70;;;1.90;;
22614;SDS011;11474;50.790;0.298;2023-03-14T13:46:48;4.50;;;1.55;;
22614;SDS011;11474;50.790;0.298;2023-03-14T13:49:18;5.15;;;1.48;;
22614;SDS011;11474;50.790;0.298;2023-03-14T13:51:47;5.00;;;1.60;;
22614;SDS011;11474;50.790;0.298;2023-03-14T13:54:22;5.18;;;1.58;;
22614;SDS011;11474;50.790;0.298;2023-03-14T13:56:49;5.75;;;1.65;;
22614;SDS011;11474;50.790;0.298;2023-03-14T13:59:25;4.15;;;1.70;;
22614;SDS011;11474;50.790;0.298;2023-03-14T14:01:52;5.72;;;1.70;;
22614;SDS011;11474;50.790;0.298;2023-03-14T14:04:19;5.72;;;1.60;;
22614;SDS011;11474;50.790;0.298;2023-03-14T14:06:53;8.10;;;1.92;;
22614;SDS011;11474;50.790;0.298;2023-03-14T14:09:21;7.93;;;1.80;;
22614;SDS011;11474;50.790;0.298;2023-03-14T14:14:21;6.55;;;1.98;;
22614;SDS011;11474;50.790;0.298;2023-03-14T14:16:49;6.03;;;1.70;;
22614;SDS011;11474;50.790;0.298;2023-03-14T14:19:16;7.53;;;1.75;;
22614;SDS011;11474;50.790;0.298;2023-03-14T14:21:43;4.47;;;1.40;;
22614;SDS011;11474;50.790;0.298;2023-03-14T14:24:11;6.20;;;1.77;;
22614;SDS011;11474;50.790;0.298;2023-03-14T14:26:51;6.90;;;1.83;;
22614;SDS011;11474;50.790;0.298;2023-03-14T14:29:36;6.43;;;1.75;;
22614;SDS011;11474;50.790;0.298;2023-03-14T14:32:03;5.00;;;1.65;;
22614;SDS011;11474;50.790;0.298;2023-03-14T14:37:25;6.20;;;1.95;;
22614;SDS011;11474;50.790;0.298;2023-03-14T14:39:52;7.63;;;2.30;;
22614;SDS011;11474;50.790;0.298;2023-03-14T14:42:20;8.75;;;2.13;;
22614;SDS011;11474;50.790;0.298;2023-03-14T14:44:47;8.95;;;2.22;;
22614;SDS011;11474;50.790;0.298;2023-03-14T14:47:15;7.43;;;1.90;;
22614;SDS011;11474;50.790;0.298;2023-03-14T14:49:43;7.05;;;2.00;;
22614;SDS011;11474;50.790;0.298;2023-03-14T14:52:10;9.48;;;1.98;;
22614;SDS011;11474;50.790;0.298;2023-03-14T14:54:42;5.05;;;1.70;;
22614;SDS011;11474;50.790;0.298;2023-03-14T14:57:19;8.75;;;2.22;;
22614;SDS011;11474;50.790;0.298;2023-03-14T14:59:47;7.35;;;2.00;;
22614;SDS011;11474;50.790;0.298;2023-03-14T15:02:48;7.45;;;1.90;;
22614;SDS011;11474;50.790;0.298;2023-03-14T15:05:13;8.88;;;2.00;;
22614;SDS011;11474;50.790;0.298;2023-03-14T15:07:40;7.25;;;2.00;;
22614;SDS011;11474;50.790;0.298;2023-03-14T15:10:09;9.10;;;1.87;;
22614;SDS011;11474;50.790;0.298;2023-03-14T15:12:36;8.13;;;1.83;;
22614;SDS011;11474;50.790;0.298;2023-03-14T15:15:02;8.43;;;2.10;;
22614;SDS011;11474;50.790;0.298;2023-03-14T15:17:28;7.13;;;1.90;;
22614;SDS011;11474;50.790;0.298;2023-03-14T15:19:54;8.88;;;1.98;;
22614;SDS011;11474;50.790;0.298;2023-03-14T15:22:23;9.48;;;2.25;;
22614;SDS011;11474;50.790;0.298;2023-03-14T15:24:49;10.27;;;2.30;;
22614;SDS011;11474;50.790;0.298;2023-03-14T15:27:15;7.90;;;2.07;;
22614;SDS011;11474;50.790;0.298;2023-03-14T15:29:43;6.93;;;1.67;;
22614;SDS011;11474;50.790;0.298;2023-03-14T15:32:11;9.73;;;2.05;;
22614;SDS011;11474;50.790;0.298;2023-03-14T15:34:37;5.32;;;1.60;;
22614;SDS011;11474;50.790;0.298;2023-03-14T15:37:03;6.18;;;1.90;;
22614;SDS011;11474;50.790;0.298;2023-03-14T15:39:33;4.38;;;1.70;;
22614;SDS011;11474;50.790;0.298;2023-03-14T15:41:59;5.97;;;1.98;;
22614;SDS011;11474;50.790;0.298;2023-03-14T15:44:25;5.23;;;1.50;;
22614;SDS011;11474;50.790;0.298;2023-03-14T15:46:51;5.85;;;1.75;;
22614;SDS011;11474;50.790;0.298;2023-03-14T15:49:18;5.22;;;2.00;;
22614;SDS011;11474;50.790;0.298;2023-03-14T15:51:44;5.72;;;1.80;;
22614;SDS011;11474;50.790;0.298;2023-03-14T15:54:10;3.95;;;1.70;;